createdAt,value
2019-04-11T00:00:23.643Z,6.07
2019-04-11T00:02:55.263Z,5.17
2019-04-11T00:05:26.553Z,4.80
2019-04-11T00:07:59.292Z,5.80
2019-04-11T00:10:31.332Z,4.80
2019-04-11T00:13:14.207Z,5.60
2019-04-11T00:15:34.918Z,5.37
2019-04-11T00:18:06.162Z,4.70
2019-04-11T00:20:36.512Z,5.53
2019-04-11T00:23:08.127Z,4.47
2019-04-11T00:25:37.916Z,5.70
2019-04-11T00:28:09.892Z,5.07
2019-04-11T00:30:42.601Z,5.30
2019-04-11T00:33:16.124Z,4.63
2019-04-11T00:35:48.071Z,5.20
2019-04-11T00:38:19.162Z,5.63
2019-04-11T00:40:53.320Z,5.50
2019-04-11T00:43:31.624Z,6.23
2019-04-11T00:45:56.197Z,4.93
2019-04-11T00:48:26.004Z,4.80
2019-04-11T00:50:56.724Z,4.70
2019-04-11T00:53:30.161Z,5.53
2019-04-11T00:56:00.034Z,4.67
2019-04-11T00:58:31.804Z,5.20
2019-04-11T01:01:02.077Z,5.00
2019-04-11T01:03:32.488Z,4.93
2019-04-11T01:06:01.759Z,4.87
2019-04-11T01:08:33.169Z,5.50
2019-04-11T01:11:05.704Z,6.20
2019-04-11T01:13:44.595Z,4.70
2019-04-11T01:16:11.160Z,6.03
2019-04-11T01:18:40.996Z,5.37
2019-04-11T01:21:11.058Z,5.57
2019-04-11T01:23:40.901Z,5.13
2019-04-11T01:26:12.883Z,5.87
2019-04-11T01:28:44.897Z,4.93
2019-04-11T01:31:20.411Z,5.23
2019-04-11T01:33:51.818Z,6.00
2019-04-11T01:36:22.881Z,5.67
2019-04-11T01:38:57.022Z,6.00
2019-04-11T01:41:26.852Z,4.30
2019-04-11T01:44:02.106Z,5.87
2019-04-11T01:46:30.329Z,4.87
2019-04-11T01:49:14.797Z,6.50
2019-04-11T01:51:46.039Z,5.43
2019-04-11T01:54:17.137Z,5.23
2019-04-11T01:56:48.181Z,5.53
2019-04-11T01:59:19.508Z,5.17
2019-04-11T02:01:52.806Z,6.20
2019-04-11T02:04:25.825Z,5.43
2019-04-11T02:07:00.374Z,5.53
2019-04-11T02:09:30.409Z,5.17
2019-04-11T02:12:01.588Z,5.53
2019-04-11T02:14:31.580Z,4.80
2019-04-11T02:17:01.656Z,5.20
2019-04-11T02:19:36.382Z,5.20
2019-04-11T02:22:26.373Z,5.80
2019-04-11T02:25:01.537Z,5.37
2019-04-11T02:27:32.674Z,5.63
2019-04-11T02:30:03.973Z,5.23
2019-04-11T02:32:37.010Z,5.30
2019-04-11T02:35:09.031Z,5.00
2019-04-11T02:37:42.235Z,5.60
2019-04-11T02:40:13.610Z,5.30
2019-04-11T02:42:45.669Z,5.37
2019-04-11T02:45:35.484Z,6.40
2019-04-11T02:47:55.358Z,5.80
2019-04-11T02:50:25.966Z,5.07
2019-04-11T02:52:56.841Z,6.27
2019-04-11T02:55:27.686Z,5.53
2019-04-11T02:57:59.718Z,5.67
2019-04-11T03:00:33.733Z,5.80
2019-04-11T03:03:06.193Z,6.37
2019-04-11T03:05:39.409Z,5.33
2019-04-11T03:08:12.044Z,5.53
2019-04-11T03:10:43.048Z,5.27
2019-04-11T03:13:14.329Z,5.23
2019-04-11T03:16:00.541Z,6.40
2019-04-11T03:18:35.617Z,5.73
2019-04-11T03:20:56.094Z,6.30
2019-04-11T03:23:23.524Z,5.63
2019-04-11T03:25:54.396Z,5.40
2019-04-11T03:28:30.243Z,6.10
2019-04-11T03:31:33.068Z,5.90
2019-04-11T03:37:03.382Z,5.50
2019-04-11T03:39:02.358Z,6.33
2019-04-11T03:41:24.985Z,5.80
2019-04-11T03:43:53.968Z,6.00
2019-04-11T03:46:32.640Z,6.20
2019-04-11T03:49:00.523Z,5.67
2019-04-11T03:51:22.771Z,6.67
2019-04-11T03:53:53.627Z,5.57
2019-04-11T03:56:26.474Z,5.80
2019-04-11T03:58:57.811Z,5.53
2019-04-11T04:01:29.649Z,5.77
2019-04-11T04:04:00.586Z,7.03
2019-04-11T04:06:33.153Z,5.80
2019-04-11T04:09:06.611Z,6.37
2019-04-11T04:11:40.896Z,6.90
2019-04-11T04:14:21.521Z,5.80
2019-04-11T04:17:00.931Z,6.70
2019-04-11T04:19:32.935Z,6.90
2019-04-11T04:22:24.744Z,6.27
2019-04-11T04:24:55.920Z,7.53
2019-04-11T04:27:28.000Z,5.90
2019-04-11T04:30:00.534Z,7.33
2019-04-11T04:32:33.069Z,6.10
2019-04-11T04:35:06.359Z,6.40
2019-04-11T04:37:38.612Z,6.30
2019-04-11T04:40:23.921Z,8.20
2019-04-11T04:42:46.654Z,5.83
2019-04-11T04:45:16.247Z,5.97
2019-04-11T04:47:54.007Z,7.40
2019-04-11T04:50:28.748Z,5.93
2019-04-11T04:53:00.983Z,6.10
2019-04-11T04:55:30.554Z,6.20
2019-04-11T04:58:01.890Z,5.97
2019-04-11T05:00:34.727Z,7.53
2019-04-11T05:03:07.797Z,6.57
2019-04-11T05:05:38.298Z,7.07
2019-04-11T05:08:11.179Z,6.77
2019-04-11T05:10:43.019Z,8.10
2019-04-11T05:13:15.561Z,6.53
2019-04-11T05:16:04.746Z,6.43
2019-04-11T05:18:24.453Z,7.50
2019-04-11T05:20:54.829Z,7.07
2019-04-11T05:23:27.739Z,6.87
2019-04-11T05:26:00.006Z,7.83
2019-04-11T05:28:29.800Z,7.13
2019-04-11T05:31:00.593Z,6.63
2019-04-11T05:33:31.576Z,7.60
2019-04-11T05:36:01.592Z,6.73
2019-04-11T05:38:32.565Z,6.60
2019-04-11T05:41:02.613Z,6.77
2019-04-11T05:43:37.363Z,8.60
2019-04-11T05:46:22.917Z,6.67
2019-04-11T05:48:48.424Z,7.70
2019-04-11T05:51:22.028Z,7.20
2019-04-11T05:53:54.474Z,6.90
2019-04-11T05:56:29.830Z,8.40
2019-04-11T05:59:01.929Z,6.93
2019-04-11T06:01:36.306Z,8.07
2019-04-11T06:04:13.120Z,7.37
2019-04-11T06:06:56.805Z,8.67
2019-04-11T06:09:32.894Z,6.73
2019-04-11T06:12:01.779Z,7.03
2019-04-11T06:14:35.298Z,7.00
2019-04-11T06:17:09.522Z,8.57
2019-04-11T06:19:43.873Z,7.00
2019-04-11T06:22:14.896Z,7.33
2019-04-11T06:24:46.403Z,7.67
2019-04-11T06:27:19.935Z,6.90
2019-04-11T06:30:07.408Z,8.23
2019-04-11T06:32:54.354Z,7.20
2019-04-11T06:35:26.341Z,8.10
2019-04-11T06:37:59.532Z,7.40
2019-04-11T06:40:34.708Z,7.70
2019-04-11T06:43:21.795Z,7.07
2019-04-11T06:46:11.117Z,8.93
2019-04-11T06:48:45.536Z,6.97
2019-04-11T06:51:33.806Z,8.77
2019-04-11T06:54:21.243Z,7.10
2019-04-11T06:56:52.314Z,7.33
2019-04-11T06:59:32.397Z,9.40
2019-04-11T07:02:12.384Z,7.87
2019-04-11T07:04:38.113Z,8.23
2019-04-11T07:07:15.045Z,7.53
2019-04-11T07:09:55.543Z,9.50
2019-04-11T07:12:33.046Z,7.60
2019-04-11T07:15:20.921Z,8.93
2019-04-11T07:18:08.357Z,7.23
2019-04-11T07:20:52.538Z,8.67
2019-04-11T07:23:44.569Z,7.67
2019-04-11T07:26:16.817Z,8.77
2019-04-11T07:28:50.913Z,8.03
2019-04-11T07:31:39.748Z,9.30
2019-04-11T07:34:11.638Z,7.57
2019-04-11T07:37:00.224Z,9.43
2019-04-11T07:39:33.666Z,7.83
2019-04-11T07:42:15.901Z,9.23
2019-04-11T07:45:04.965Z,8.10
2019-04-11T07:47:39.668Z,9.53
2019-04-11T07:50:10.158Z,7.77
2019-04-11T07:52:42.628Z,10.03
2019-04-11T07:55:13.941Z,8.80
2019-04-11T07:57:54.730Z,10.10
2019-04-11T08:00:40.936Z,8.27
2019-04-11T08:03:06.371Z,9.80
2019-04-11T08:05:46.773Z,8.90
2019-04-11T08:08:34.544Z,9.30
2019-04-11T08:11:11.438Z,8.53
2019-04-11T08:14:00.199Z,10.23
2019-04-11T08:16:48.956Z,10.30
2019-04-11T08:19:24.840Z,8.87
2019-04-11T08:22:00.883Z,10.37
2019-04-11T08:24:36.593Z,10.17
2019-04-11T08:27:09.563Z,10.03
2019-04-11T08:29:40.643Z,10.40
2019-04-11T08:32:29.670Z,9.77
2019-04-11T08:35:05.959Z,9.67
2019-04-11T08:37:44.013Z,9.13
2019-04-11T08:40:15.878Z,9.90
2019-04-11T08:42:54.910Z,9.13
2019-04-11T08:45:29.756Z,10.40
2019-04-11T08:48:02.404Z,9.90
2019-04-11T08:50:34.492Z,10.27
2019-04-11T08:53:20.705Z,10.60
2019-04-11T08:56:00.506Z,10.90
2019-04-11T08:58:47.028Z,9.83
2019-04-11T09:01:22.450Z,8.43
2019-04-11T09:04:07.351Z,9.60
2019-04-11T09:06:37.023Z,9.50
2019-04-11T09:09:23.131Z,8.73
2019-04-11T09:11:56.347Z,9.90
2019-04-11T09:14:46.448Z,9.73
2019-04-11T09:17:21.514Z,9.30
2019-04-11T09:19:56.929Z,8.73
2019-04-11T09:22:29.279Z,9.00
2019-04-11T09:28:05.201Z,9.23
2019-04-11T09:30:54.846Z,8.60
2019-04-11T09:33:33.454Z,9.90
2019-04-11T09:36:22.337Z,9.40
2019-04-11T09:39:02.663Z,7.73
2019-04-11T09:41:50.551Z,9.13
2019-04-11T09:44:28.770Z,9.60
2019-04-11T09:47:17.497Z,9.43
2019-04-11T09:49:49.042Z,8.87
2019-04-11T09:52:38.952Z,8.53
2019-04-11T09:55:21.231Z,7.60
2019-04-11T09:57:52.717Z,6.77
2019-04-11T10:00:41.430Z,8.00
2019-04-11T10:03:15.195Z,7.53
2019-04-11T10:06:07.146Z,6.17
2019-04-11T10:08:39.820Z,6.63
2019-04-11T10:11:28.659Z,6.10
2019-04-11T10:14:05.206Z,6.13
2019-04-11T10:16:37.974Z,7.30
2019-04-11T10:19:27.914Z,6.77
2019-04-11T10:22:02.978Z,6.83
2019-04-11T10:24:36.751Z,6.07
2019-04-11T10:27:26.688Z,7.50
2019-04-11T10:30:08.633Z,7.67
2019-04-11T10:32:39.409Z,8.63
2019-04-11T10:35:28.802Z,9.47
2019-04-11T10:38:00.175Z,7.93
2019-04-11T10:40:48.717Z,8.97
2019-04-11T10:43:20.324Z,7.67
2019-04-11T10:46:00.815Z,8.87
2019-04-11T10:48:37.713Z,11.33
2019-04-11T10:51:20.614Z,8.70
2019-04-11T10:53:55.449Z,9.03
2019-04-11T10:56:31.041Z,8.97
2019-04-11T10:59:02.181Z,7.10
2019-04-11T11:01:33.884Z,9.77
2019-04-11T11:04:07.373Z,9.60
2019-04-11T11:06:38.581Z,9.30
2019-04-11T11:09:12.697Z,7.37
2019-04-11T11:12:01.269Z,8.00
2019-04-11T11:14:53.478Z,8.17
2019-04-11T11:17:54.940Z,7.37
2019-04-11T11:20:29.870Z,8.93
2019-04-11T11:22:57.310Z,9.37
2019-04-11T11:25:48.357Z,7.40
2019-04-11T11:28:17.825Z,8.40
2019-04-11T11:31:07.933Z,6.83
2019-04-11T11:33:38.625Z,8.87
2019-04-11T11:36:19.925Z,7.40
2019-04-11T11:39:10.854Z,9.13
2019-04-11T11:41:59.504Z,9.27
2019-04-11T11:44:35.050Z,8.30
2019-04-11T11:47:07.992Z,8.50
2019-04-11T11:49:51.022Z,7.40
2019-04-11T11:52:20.451Z,8.50
2019-04-11T11:54:50.082Z,7.73
2019-04-11T11:57:22.460Z,9.13
2019-04-11T11:59:54.861Z,7.60
2019-04-11T12:02:29.056Z,8.70
2019-04-11T12:05:18.058Z,7.47
2019-04-11T12:08:01.731Z,8.73
2019-04-11T12:10:42.001Z,7.47
2019-04-11T12:13:19.331Z,9.40
2019-04-11T12:15:54.479Z,8.97
2019-04-11T12:18:28.800Z,8.40
2019-04-11T12:21:03.186Z,9.30
2019-04-11T12:24:00.494Z,8.70
2019-04-11T12:26:28.773Z,10.20
2019-04-11T12:28:57.561Z,9.10
2019-04-11T12:31:35.614Z,9.50
2019-04-11T12:34:22.641Z,8.40
2019-04-11T12:36:53.329Z,9.60
2019-04-11T12:39:30.214Z,10.10
2019-04-11T12:42:03.047Z,9.57
2019-04-11T12:44:53.939Z,10.37
2019-04-11T12:47:26.856Z,8.37
2019-04-11T12:50:14.678Z,9.37
2019-04-11T12:52:46.437Z,10.20
2019-04-11T12:55:21.875Z,9.50
2019-04-11T12:58:10.555Z,10.93
2019-04-11T13:00:43.470Z,10.63
2019-04-11T13:03:32.677Z,11.80
2019-04-11T13:06:05.051Z,11.07
2019-04-11T13:08:36.866Z,9.80
2019-04-11T13:11:08.596Z,11.23
2019-04-11T13:13:43.604Z,11.27
2019-04-11T13:16:16.259Z,9.17
2019-04-11T13:18:57.889Z,11.10
2019-04-11T13:21:45.426Z,8.70
2019-04-11T13:24:35.237Z,11.23
2019-04-11T13:27:14.324Z,10.57
2019-04-11T13:29:47.097Z,10.20
2019-04-11T13:32:34.469Z,8.47
2019-04-11T13:35:10.582Z,9.90
2019-04-11T13:37:59.535Z,8.20
2019-04-11T13:40:40.860Z,10.40
2019-04-11T13:43:12.315Z,8.73
2019-04-11T13:45:53.705Z,10.47
2019-04-11T13:48:42.090Z,9.00
2019-04-11T13:51:15.516Z,10.03
2019-04-11T13:54:03.234Z,8.53
2019-04-11T13:56:36.737Z,11.43
2019-04-11T13:59:14.442Z,9.27
2019-04-11T14:01:47.272Z,11.07
2019-04-11T14:04:19.145Z,9.33
2019-04-11T14:06:51.004Z,9.80
2019-04-11T14:09:30.857Z,8.77
2019-04-11T14:12:21.104Z,10.17
2019-04-11T14:14:51.953Z,9.20
2019-04-11T14:17:33.206Z,10.67
2019-04-11T14:20:08.827Z,9.03
2019-04-11T14:22:43.673Z,10.30
2019-04-11T14:25:17.608Z,9.10
2019-04-11T14:27:49.974Z,10.53
2019-04-11T14:30:37.494Z,10.07
2019-04-11T14:33:08.293Z,9.27
2019-04-11T14:35:39.254Z,11.17
2019-04-11T14:38:14.225Z,11.03
2019-04-11T14:43:46.413Z,9.90
2019-04-11T14:46:18.769Z,10.40
2019-04-11T14:48:52.856Z,8.73
2019-04-11T14:51:38.065Z,10.17
2019-04-11T14:54:18.554Z,10.60
2019-04-11T14:56:52.416Z,10.73
2019-04-11T14:59:40.305Z,8.63
2019-04-11T15:02:12.989Z,10.17
2019-04-11T15:05:02.937Z,9.00
2019-04-11T15:07:35.369Z,10.33
2019-04-11T15:10:18.296Z,9.33
2019-04-11T15:12:50.163Z,10.70
2019-04-11T15:15:21.657Z,9.67
2019-04-11T15:17:55.591Z,11.37
2019-04-11T15:20:34.969Z,10.00
2019-04-11T15:23:09.355Z,9.43
2019-04-11T15:25:46.859Z,10.57
2019-04-11T15:28:21.921Z,8.77
2019-04-11T15:30:57.122Z,10.70
2019-04-11T15:33:33.746Z,9.10
2019-04-11T15:36:08.197Z,10.57
2019-04-11T15:38:49.169Z,9.20
2019-04-11T15:41:20.292Z,10.23
2019-04-11T15:44:01.006Z,9.13
2019-04-11T15:46:32.913Z,10.30
2019-04-11T15:49:22.137Z,10.43
2019-04-11T15:51:55.669Z,10.47
2019-04-11T15:54:47.378Z,9.47
2019-04-11T15:57:19.116Z,11.13
2019-04-11T15:59:55.879Z,9.00
2019-04-11T16:02:45.548Z,10.53
2019-04-11T16:05:17.446Z,9.30
2019-04-11T16:08:08.570Z,10.60
2019-04-11T16:10:42.008Z,8.87
2019-04-11T16:13:30.045Z,10.37
2019-04-11T16:16:09.590Z,9.47
2019-04-11T16:18:53.689Z,10.13
2019-04-11T16:21:27.813Z,10.67
2019-04-11T16:24:14.049Z,8.17
2019-04-11T16:27:03.029Z,9.70
2019-04-11T16:29:38.917Z,8.50
2019-04-11T16:32:17.165Z,9.87
2019-04-11T16:34:54.492Z,9.40
2019-04-11T16:37:24.017Z,11.00
2019-04-11T16:40:11.365Z,9.47
2019-04-11T16:42:43.333Z,11.20
2019-04-11T16:45:31.092Z,11.33
2019-04-11T16:48:02.730Z,11.70
2019-04-11T16:50:33.459Z,9.13
2019-04-11T16:53:03.245Z,10.40
2019-04-11T16:55:32.501Z,10.57
2019-04-11T16:58:04.040Z,8.80
2019-04-11T17:00:36.573Z,11.03
2019-04-11T17:03:08.088Z,10.30
2019-04-11T17:05:40.607Z,10.77
2019-04-11T17:08:25.901Z,10.30
2019-04-11T17:11:02.000Z,8.77
2019-04-11T17:13:34.603Z,10.00
2019-04-11T17:16:06.965Z,10.27
2019-04-11T17:18:39.786Z,10.20
2019-04-11T17:21:10.095Z,8.67
2019-04-11T17:23:41.790Z,9.97
2019-04-11T17:26:12.761Z,10.20
2019-04-11T17:28:44.877Z,8.50
2019-04-11T17:31:14.228Z,10.10
2019-04-11T17:33:44.301Z,10.27
2019-04-11T17:36:15.458Z,8.53
2019-04-11T17:38:46.658Z,10.50
2019-04-11T17:41:18.673Z,10.37
2019-04-11T17:43:51.773Z,8.80
2019-04-11T17:46:26.776Z,10.13
2019-04-11T17:48:56.666Z,9.70
2019-04-11T17:51:26.443Z,8.50
2019-04-11T17:53:56.525Z,10.50
2019-04-11T17:56:29.070Z,9.30
2019-04-11T17:58:58.792Z,8.73
2019-04-11T18:01:28.719Z,9.00
2019-04-11T18:03:58.415Z,9.23
2019-04-11T18:06:28.154Z,7.53
2019-04-11T18:08:58.973Z,9.53
2019-04-11T18:11:29.037Z,9.43
2019-04-11T18:14:01.002Z,7.70
2019-04-11T18:16:34.416Z,9.00
2019-04-11T18:19:06.077Z,9.40
2019-04-11T18:21:37.657Z,8.73
2019-04-11T18:24:08.402Z,7.70
2019-04-11T18:26:38.284Z,8.97
2019-04-11T18:29:08.925Z,9.07
2019-04-11T18:31:39.537Z,8.43
2019-04-11T18:34:09.297Z,8.73
2019-04-11T18:36:39.898Z,8.30
2019-04-11T18:39:09.909Z,8.60
2019-04-11T18:41:40.814Z,8.83
2019-04-11T18:44:11.212Z,7.07
2019-04-11T18:46:42.921Z,8.23
2019-04-11T18:49:13.072Z,8.63
2019-04-11T18:51:44.246Z,8.60
2019-04-11T18:54:17.709Z,8.93
2019-04-11T18:56:48.397Z,7.23
2019-04-11T18:59:20.091Z,9.00
2019-04-11T19:01:49.921Z,7.67
2019-04-11T19:04:31.826Z,8.73
2019-04-11T19:06:53.439Z,7.27
2019-04-11T19:09:24.397Z,8.33
2019-04-11T19:11:56.057Z,7.20
2019-04-11T19:14:26.326Z,8.13
2019-04-11T19:16:57.249Z,7.93
2019-04-11T19:19:29.745Z,7.40
2019-04-11T19:22:00.497Z,8.03
2019-04-11T19:24:35.745Z,7.10
2019-04-11T19:27:03.049Z,7.90
2019-04-11T19:29:33.772Z,6.73
2019-04-11T19:32:05.533Z,8.53
2019-04-11T19:34:35.632Z,8.07
2019-04-11T19:37:11.780Z,8.80
2019-04-11T19:39:45.133Z,6.97
2019-04-11T19:42:13.054Z,8.03
2019-04-11T19:44:43.005Z,8.53
2019-04-11T19:47:14.550Z,6.80
2019-04-11T19:49:45.566Z,7.70
2019-04-11T19:52:16.310Z,6.93
2019-04-11T19:54:46.518Z,8.13
2019-04-11T19:57:17.618Z,6.90
2019-04-11T19:59:48.970Z,7.73
2019-04-11T20:02:19.172Z,6.80
2019-04-11T20:04:57.664Z,8.27
2019-04-11T20:07:25.570Z,6.47
2019-04-11T20:09:55.462Z,7.87
2019-04-11T20:12:27.692Z,6.87
2019-04-11T20:14:57.106Z,7.90
2019-04-11T20:17:27.880Z,7.00
2019-04-11T20:20:01.570Z,7.77
2019-04-11T20:22:33.854Z,6.80
2019-04-11T20:25:07.269Z,7.93
2019-04-11T20:27:37.544Z,6.37
2019-04-11T20:30:09.032Z,7.73
2019-04-11T20:32:39.821Z,6.90
2019-04-11T20:35:11.154Z,7.57
2019-04-11T20:37:44.412Z,6.87
2019-04-11T20:40:17.342Z,7.50
2019-04-11T20:42:48.877Z,6.30
2019-04-11T20:45:19.677Z,7.53
2019-04-11T20:47:50.306Z,6.30
2019-04-11T20:50:20.385Z,8.17
2019-04-11T20:52:50.514Z,6.60
2019-04-11T20:55:21.312Z,7.63
2019-04-11T20:57:50.987Z,6.67
2019-04-11T21:00:21.693Z,7.20
2019-04-11T21:02:51.269Z,6.73
2019-04-11T21:05:22.087Z,6.40
2019-04-11T21:07:53.061Z,7.63
2019-04-11T21:10:23.215Z,6.23
2019-04-11T21:12:53.405Z,6.30
2019-04-11T21:15:23.302Z,7.67
2019-04-11T21:17:56.057Z,6.63
2019-04-11T21:20:27.383Z,7.70
2019-04-11T21:22:57.137Z,6.70
2019-04-11T21:25:28.561Z,6.87
2019-04-11T21:27:59.111Z,8.33
2019-04-11T21:30:32.746Z,6.93
2019-04-11T21:33:04.287Z,7.67
2019-04-11T21:35:34.174Z,7.00
2019-04-11T21:38:04.001Z,8.17
2019-04-11T21:40:35.886Z,6.77
2019-04-11T21:43:06.810Z,7.00
2019-04-11T21:45:37.757Z,8.00
2019-04-11T21:48:07.962Z,6.87
2019-04-11T21:50:41.231Z,7.57
2019-04-11T21:53:14.016Z,6.53
2019-04-11T21:55:47.412Z,8.17
2019-04-11T21:58:19.426Z,6.30
2019-04-11T22:00:51.713Z,7.93
2019-04-11T22:03:24.229Z,6.53
2019-04-11T22:05:55.331Z,6.10
2019-04-11T22:08:25.413Z,6.30
2019-04-11T22:10:55.318Z,6.50
2019-04-11T22:13:28.145Z,6.47
2019-04-11T22:15:58.305Z,7.90
2019-04-11T22:18:29.717Z,6.70
2019-04-11T22:21:00.886Z,7.33
2019-04-11T22:23:31.612Z,6.50
2019-04-11T22:26:02.195Z,6.83
2019-04-11T22:28:33.282Z,7.40
2019-04-11T22:31:03.153Z,6.23
2019-04-11T22:33:37.108Z,7.40
2019-04-11T22:36:07.198Z,6.70
2019-04-11T22:38:37.089Z,6.27
2019-04-11T22:41:07.794Z,6.03
2019-04-11T22:43:38.127Z,6.87
2019-04-11T22:46:20.331Z,6.83
2019-04-11T22:48:42.558Z,6.80
2019-04-11T22:51:13.421Z,6.47
2019-04-11T22:53:45.101Z,8.03
2019-04-11T22:56:15.367Z,6.63
2019-04-11T22:58:45.137Z,7.67
2019-04-11T23:01:16.631Z,6.43
2019-04-11T23:03:51.366Z,6.57
2019-04-11T23:06:21.265Z,7.50
2019-04-11T23:08:50.980Z,6.57
2019-04-11T23:11:23.457Z,7.83
2019-04-11T23:13:55.785Z,6.20
2019-04-11T23:16:26.356Z,7.47
2019-04-11T23:18:59.796Z,6.60
2019-04-11T23:21:31.453Z,7.40
2019-04-11T23:24:11.484Z,6.27
2019-04-11T23:26:35.149Z,6.87
2019-04-11T23:29:06.241Z,7.77
2019-04-11T23:31:37.110Z,6.80
2019-04-11T23:34:09.381Z,7.73
2019-04-11T23:36:40.217Z,5.97
2019-04-11T23:39:11.273Z,7.70
2019-04-11T23:41:41.440Z,6.70
2019-04-11T23:44:12.316Z,7.47
2019-04-11T23:46:42.899Z,6.30
2019-04-11T23:49:12.985Z,7.63
2019-04-11T23:51:43.177Z,6.30
2019-04-11T23:54:22.725Z,7.37
2019-04-11T23:56:44.944Z,6.17
2019-04-11T23:59:15.878Z,7.63
